createdAt,value
2023-05-13T00:01:39.011Z,3.10
2023-05-13T00:04:07.676Z,3.50
2023-05-13T00:06:37.296Z,3.13
2023-05-13T00:09:05.580Z,3.60
2023-05-13T00:11:33.684Z,3.43
2023-05-13T00:14:01.694Z,3.37
2023-05-13T00:16:29.843Z,3.80
2023-05-13T00:18:58.006Z,3.50
2023-05-13T00:21:26.212Z,3.20
2023-05-13T00:23:55.654Z,3.20
2023-05-13T00:26:23.956Z,3.60
2023-05-13T00:28:51.947Z,3.63
2023-05-13T00:31:20.254Z,3.43
2023-05-13T00:33:48.318Z,3.73
2023-05-13T00:36:16.392Z,3.50
2023-05-13T00:38:44.947Z,3.80
2023-05-13T00:41:15.030Z,3.50
2023-05-13T00:43:43.047Z,3.90
2023-05-13T00:46:11.097Z,3.40
2023-05-13T00:48:39.854Z,3.50
2023-05-13T00:51:08.258Z,3.57
2023-05-13T00:53:37.301Z,3.67
2023-05-13T00:56:06.013Z,3.83
2023-05-13T00:58:35.544Z,4.13
2023-05-13T01:01:13.497Z,2.90
2023-05-13T01:03:51.572Z,3.67
2023-05-13T01:06:24.128Z,3.57
2023-05-13T01:08:59.587Z,3.67
2023-05-13T01:11:29.923Z,3.87
2023-05-13T01:14:07.171Z,3.80
2023-05-13T01:16:40.433Z,3.63
2023-05-13T01:19:19.778Z,3.20
2023-05-13T01:21:54.566Z,3.70
2023-05-13T01:24:22.714Z,3.67
2023-05-13T01:26:50.854Z,4.00
2023-05-13T01:29:19.108Z,3.33
2023-05-13T01:31:47.872Z,3.53
2023-05-13T01:34:16.392Z,3.53
2023-05-13T01:36:45.210Z,4.13
2023-05-13T01:39:14.968Z,3.60
2023-05-13T01:41:43.047Z,3.67
2023-05-13T01:44:11.093Z,3.53
2023-05-13T01:46:39.509Z,3.70
2023-05-13T01:49:09.438Z,4.20
2023-05-13T01:51:37.938Z,3.87
2023-05-13T01:54:06.125Z,3.70
2023-05-13T01:56:35.853Z,3.80
2023-05-13T01:59:03.905Z,3.87
2023-05-13T02:01:31.945Z,3.97
2023-05-13T02:04:00.435Z,3.70
2023-05-13T02:06:28.827Z,3.77
2023-05-13T02:08:56.991Z,4.00
2023-05-13T02:11:24.988Z,3.93
2023-05-13T02:13:54.925Z,4.00
2023-05-13T02:16:23.335Z,4.20
2023-05-13T02:18:51.494Z,3.83
2023-05-13T02:21:19.548Z,3.90
2023-05-13T02:23:47.633Z,3.83
2023-05-13T02:26:16.093Z,4.03
2023-05-13T02:28:44.359Z,4.17
2023-05-13T02:31:13.745Z,4.07
2023-05-13T02:33:41.759Z,4.80
2023-05-13T02:36:10.106Z,4.60
2023-05-13T02:38:38.120Z,3.93
2023-05-13T02:41:06.504Z,4.30
2023-05-13T02:43:34.507Z,4.63
2023-05-13T02:46:03.804Z,4.17
2023-05-13T02:48:33.232Z,4.40
2023-05-13T02:51:01.267Z,4.30
2023-05-13T02:53:29.430Z,4.57
2023-05-13T02:55:57.466Z,3.60
2023-05-13T02:58:25.488Z,4.20
2023-05-13T03:00:53.539Z,4.33
2023-05-13T03:03:21.740Z,4.40
2023-05-13T03:05:51.273Z,4.40
2023-05-13T03:08:19.323Z,4.33
2023-05-13T03:10:47.344Z,4.67
2023-05-13T03:13:15.390Z,4.53
2023-05-13T03:15:44.364Z,4.20
2023-05-13T03:18:12.770Z,4.60
2023-05-13T03:20:40.846Z,4.07
2023-05-13T03:23:10.271Z,4.30
2023-05-13T03:25:38.308Z,4.23
2023-05-13T03:28:07.071Z,4.30
2023-05-13T03:30:35.145Z,4.83
2023-05-13T03:33:03.273Z,4.30
2023-05-13T03:35:31.396Z,4.07
2023-05-13T03:37:59.391Z,4.40
2023-05-13T03:40:28.813Z,4.40
2023-05-13T03:42:56.838Z,4.63
2023-05-13T03:45:24.890Z,4.40
2023-05-13T03:47:52.944Z,4.40
2023-05-13T03:50:21.258Z,4.60
2023-05-13T03:52:49.486Z,4.60
2023-05-13T03:55:17.509Z,4.10
2023-05-13T03:57:49.777Z,4.40
2023-05-13T04:00:18.151Z,4.93
2023-05-13T04:02:46.393Z,4.50
2023-05-13T04:05:14.594Z,4.60
2023-05-13T04:07:43.037Z,4.03
2023-05-13T04:10:14.605Z,4.90
2023-05-13T04:12:43.369Z,5.17
2023-05-13T04:15:13.145Z,4.67
2023-05-13T04:17:41.195Z,4.60
2023-05-13T04:20:10.089Z,4.13
2023-05-13T04:22:38.134Z,4.23
2023-05-13T04:25:06.876Z,4.80
2023-05-13T04:27:34.908Z,4.13
2023-05-13T04:30:03.093Z,4.03
2023-05-13T04:32:32.607Z,4.40
2023-05-13T04:35:00.704Z,3.97
2023-05-13T04:37:28.713Z,4.63
2023-05-13T04:39:56.769Z,4.20
2023-05-13T04:42:24.784Z,4.17
2023-05-13T04:44:52.806Z,4.10
2023-05-13T04:47:21.376Z,4.60
2023-05-13T04:49:50.773Z,4.70
2023-05-13T04:52:19.593Z,4.00
2023-05-13T04:54:47.587Z,4.23
2023-05-13T04:57:15.572Z,4.37
2023-05-13T04:59:43.572Z,4.50
2023-05-13T05:02:11.718Z,4.67
2023-05-13T05:04:39.796Z,4.73
2023-05-13T05:07:09.199Z,4.10
2023-05-13T05:09:37.202Z,4.03
2023-05-13T05:12:05.635Z,4.10
2023-05-13T05:14:33.661Z,4.20
2023-05-13T05:17:01.880Z,4.40
2023-05-13T05:19:29.929Z,4.60
2023-05-13T05:21:58.317Z,4.60
2023-05-13T05:24:27.816Z,4.67
2023-05-13T05:26:56.769Z,4.83
2023-05-13T05:29:24.792Z,4.13
2023-05-13T05:31:53.037Z,4.00
2023-05-13T05:34:21.139Z,4.80
2023-05-13T05:36:49.206Z,4.40
2023-05-13T05:39:17.219Z,4.00
2023-05-13T05:41:47.183Z,3.87
2023-05-13T05:44:15.174Z,4.00
2023-05-13T05:46:43.206Z,3.50
2023-05-13T05:49:11.225Z,3.87
2023-05-13T05:51:39.238Z,3.73
2023-05-13T05:54:07.524Z,3.80
2023-05-13T05:56:35.588Z,3.93
2023-05-13T05:59:04.954Z,3.60
2023-05-13T06:01:36.531Z,4.07
2023-05-13T06:04:05.013Z,3.87
2023-05-13T06:06:33.852Z,4.30
2023-05-13T06:09:01.923Z,4.13
2023-05-13T06:11:29.932Z,4.20
2023-05-13T06:13:58.352Z,3.93
2023-05-13T06:16:27.853Z,4.10
2023-05-13T06:18:56.062Z,3.70
2023-05-13T06:21:24.151Z,3.83
2023-05-13T06:23:52.176Z,4.03
2023-05-13T06:26:20.862Z,3.83
2023-05-13T06:28:49.018Z,4.53
2023-05-13T06:31:17.215Z,3.80
2023-05-13T06:33:46.666Z,3.70
2023-05-13T06:36:15.309Z,3.67
2023-05-13T06:38:43.323Z,4.10
2023-05-13T06:41:11.345Z,4.07
2023-05-13T06:43:39.575Z,4.07
2023-05-13T06:46:07.603Z,3.73
2023-05-13T06:48:35.688Z,3.87
2023-05-13T06:51:05.662Z,3.83
2023-05-13T06:53:33.692Z,4.17
2023-05-13T06:56:01.710Z,4.00
2023-05-13T06:58:30.122Z,3.90
2023-05-13T07:00:58.154Z,3.90
2023-05-13T07:03:26.411Z,3.60
2023-05-13T07:05:55.524Z,3.97
2023-05-13T07:08:24.997Z,3.80
2023-05-13T07:10:53.044Z,3.77
2023-05-13T07:13:22.342Z,3.80
2023-05-13T07:15:50.518Z,3.78
2023-05-13T07:18:18.759Z,3.85
2023-05-13T07:20:46.821Z,4.47
2023-05-13T07:23:14.827Z,3.72
2023-05-13T07:25:44.408Z,3.40
2023-05-13T07:28:12.424Z,3.75
2023-05-13T07:30:41.671Z,3.80
2023-05-13T07:33:09.955Z,3.97
2023-05-13T07:35:38.005Z,3.75
2023-05-13T07:38:06.369Z,3.20
2023-05-13T07:40:34.366Z,3.50
2023-05-13T07:43:03.806Z,3.95
2023-05-13T07:45:31.823Z,3.88
2023-05-13T07:48:00.026Z,3.38
2023-05-13T07:50:28.223Z,3.90
2023-05-13T07:52:56.334Z,4.00
2023-05-13T07:55:24.528Z,4.20
2023-05-13T07:57:52.585Z,3.53
2023-05-13T08:00:22.345Z,3.55
2023-05-13T08:02:50.592Z,3.53
2023-05-13T08:05:18.709Z,3.45
2023-05-13T08:07:46.747Z,3.53
2023-05-13T08:10:14.854Z,3.20
2023-05-13T08:12:43.481Z,3.33
2023-05-13T08:15:14.357Z,3.42
2023-05-13T08:17:43.926Z,3.50
2023-05-13T08:20:12.716Z,3.05
2023-05-13T08:22:40.763Z,3.22
2023-05-13T08:25:11.205Z,3.58
2023-05-13T08:27:39.212Z,3.42
2023-05-13T08:30:08.596Z,3.45
2023-05-13T08:32:37.377Z,3.78
2023-05-13T08:35:07.688Z,3.50
2023-05-13T08:37:35.855Z,3.25
2023-05-13T08:40:04.770Z,3.13
2023-05-13T08:42:34.356Z,3.55
2023-05-13T08:45:05.847Z,3.10
2023-05-13T08:47:40.630Z,5.47
2023-05-13T08:50:11.328Z,5.25
2023-05-13T08:52:39.513Z,3.97
2023-05-13T08:55:08.744Z,3.55
2023-05-13T08:57:36.862Z,2.90
2023-05-13T09:00:05.818Z,3.15
2023-05-13T09:02:34.160Z,3.58
2023-05-13T09:05:06.590Z,3.63
2023-05-13T09:07:36.792Z,3.47
2023-05-13T09:10:06.015Z,5.10
2023-05-13T09:12:51.669Z,3.75
2023-05-13T09:15:21.595Z,3.00
2023-05-13T09:17:52.413Z,2.80
2023-05-13T09:20:22.121Z,2.90
2023-05-13T09:22:53.439Z,2.72
2023-05-13T09:25:24.419Z,2.85
2023-05-13T09:27:54.146Z,3.42
2023-05-13T09:30:22.356Z,2.92
2023-05-13T09:33:07.025Z,2.15
2023-05-13T09:35:37.939Z,2.35
2023-05-13T09:38:15.896Z,2.88
2023-05-13T09:40:51.718Z,2.30
2023-05-13T09:43:21.060Z,2.55
2023-05-13T09:45:49.161Z,2.58
2023-05-13T09:48:17.237Z,2.30
2023-05-13T09:50:49.912Z,2.08
2023-05-13T09:53:20.678Z,2.30
2023-05-13T09:55:49.782Z,2.40
2023-05-13T09:58:19.085Z,2.13
2023-05-13T10:00:48.159Z,2.35
2023-05-13T10:03:16.432Z,2.47
2023-05-13T10:05:45.677Z,2.10
2023-05-13T10:08:14.908Z,2.55
2023-05-13T10:10:45.783Z,2.33
2023-05-13T10:13:16.281Z,1.98
2023-05-13T10:15:50.080Z,2.00
2023-05-13T10:18:18.918Z,2.35
2023-05-13T10:20:47.218Z,2.22
2023-05-13T10:23:15.578Z,2.35
2023-05-13T10:25:45.713Z,1.90
2023-05-13T10:28:15.976Z,1.90
2023-05-13T10:30:44.916Z,2.20
2023-05-13T10:33:13.311Z,2.20
2023-05-13T10:35:46.984Z,1.85
2023-05-13T10:38:21.932Z,1.98
2023-05-13T10:41:11.300Z,1.77
2023-05-13T10:43:39.667Z,1.90
2023-05-13T10:46:09.313Z,1.95
2023-05-13T10:48:43.086Z,4.30
2023-05-13T10:51:15.615Z,3.90
2023-05-13T10:53:49.418Z,2.60
2023-05-13T10:56:21.894Z,2.08
2023-05-13T10:58:59.358Z,4.85
2023-05-13T11:01:30.117Z,3.08
2023-05-13T11:03:59.639Z,42.60
2023-05-13T11:06:34.623Z,20.88
2023-05-13T11:09:05.731Z,11.05
2023-05-13T11:11:36.624Z,5.35
2023-05-13T11:14:15.196Z,3.80
2023-05-13T11:16:48.017Z,2.90
2023-05-13T11:19:24.204Z,2.28
2023-05-13T11:21:54.029Z,2.20
2023-05-13T11:24:23.319Z,1.95
2023-05-13T11:26:54.327Z,2.35
2023-05-13T11:29:33.088Z,1.90
2023-05-13T11:32:02.593Z,1.63
2023-05-13T11:34:31.425Z,1.42
2023-05-13T11:37:10.529Z,1.90
2023-05-13T11:39:40.958Z,1.77
2023-05-13T11:42:11.644Z,2.13
2023-05-13T11:44:46.931Z,1.73
2023-05-13T11:47:15.641Z,1.80
2023-05-13T11:49:44.937Z,1.90
2023-05-13T11:52:15.129Z,1.63
2023-05-13T11:54:44.890Z,2.17
2023-05-13T11:57:20.817Z,1.70
2023-05-13T12:00:06.881Z,1.90
2023-05-13T12:02:37.475Z,2.33
2023-05-13T12:05:07.675Z,2.20
2023-05-13T12:07:37.530Z,1.90
2023-05-13T12:10:07.515Z,2.00
2023-05-13T12:12:39.410Z,1.85
2023-05-13T12:15:10.725Z,2.20
2023-05-13T12:17:39.253Z,1.83
2023-05-13T12:20:13.321Z,1.80
2023-05-13T12:22:56.837Z,2.40
2023-05-13T12:25:38.612Z,4.50
2023-05-13T12:28:13.174Z,4.30
2023-05-13T12:30:43.251Z,10.13
2023-05-13T12:33:16.022Z,16.35
2023-05-13T12:35:44.445Z,12.40
2023-05-13T12:38:17.391Z,34.22
2023-05-13T12:40:45.908Z,23.25
2023-05-13T12:43:17.964Z,9.02
2023-05-13T12:45:48.944Z,5.22
2023-05-13T12:48:17.012Z,3.10
2023-05-13T12:50:45.159Z,2.80
2023-05-13T12:53:13.184Z,3.25
2023-05-13T12:55:41.247Z,2.70
2023-05-13T12:58:12.013Z,2.22
2023-05-13T13:00:41.548Z,2.67
2023-05-13T13:03:09.757Z,2.97
2023-05-13T13:05:37.996Z,3.85
2023-05-13T13:08:06.427Z,2.83
2023-05-13T13:10:34.875Z,2.60
2023-05-13T13:13:03.032Z,2.75
2023-05-13T13:15:31.179Z,2.85
2023-05-13T13:18:00.689Z,2.78
2023-05-13T13:20:28.786Z,2.78
2023-05-13T13:22:56.973Z,2.70
2023-05-13T13:25:25.052Z,3.38
2023-05-13T13:27:53.113Z,3.30
2023-05-13T13:30:21.319Z,2.78
2023-05-13T13:32:49.396Z,2.80
2023-05-13T13:35:19.178Z,3.47
2023-05-13T13:37:47.344Z,3.40
2023-05-13T13:40:15.678Z,3.20
2023-05-13T13:42:45.144Z,3.60
2023-05-13T13:45:13.868Z,3.53
2023-05-13T13:47:42.238Z,3.40
2023-05-13T13:50:12.247Z,2.97
2023-05-13T13:52:41.706Z,2.70
2023-05-13T13:55:11.676Z,2.70
2023-05-13T13:57:39.864Z,2.47
2023-05-13T14:00:09.418Z,2.42
2023-05-13T14:02:37.518Z,2.70
2023-05-13T14:05:06.606Z,2.55
2023-05-13T14:07:38.641Z,2.47
2023-05-13T14:10:12.975Z,2.60
2023-05-13T14:12:41.003Z,2.20
2023-05-13T14:15:09.797Z,2.58
2023-05-13T14:17:37.928Z,2.75
2023-05-13T14:20:07.304Z,2.35
2023-05-13T14:22:35.369Z,3.17
2023-05-13T14:25:03.436Z,2.88
2023-05-13T14:27:36.280Z,2.50
2023-05-13T14:30:05.030Z,2.40
2023-05-13T14:32:33.198Z,2.70
2023-05-13T14:35:01.342Z,2.58
2023-05-13T14:37:29.409Z,2.40
2023-05-13T14:39:57.489Z,2.38
2023-05-13T14:42:25.842Z,2.20
2023-05-13T14:44:55.239Z,2.10
2023-05-13T14:47:23.318Z,1.80
2023-05-13T14:49:51.362Z,1.60
2023-05-13T14:52:19.506Z,1.45
2023-05-13T14:54:47.517Z,1.45
2023-05-13T14:57:15.689Z,1.75
2023-05-13T14:59:43.705Z,1.75
2023-05-13T15:02:13.991Z,1.80
2023-05-13T15:04:42.147Z,1.67
2023-05-13T15:07:10.206Z,1.80
2023-05-13T15:09:38.235Z,1.20
2023-05-13T15:12:07.184Z,1.63
2023-05-13T15:14:35.228Z,1.42
2023-05-13T15:17:03.436Z,1.58
2023-05-13T15:19:32.957Z,1.88
2023-05-13T15:22:01.247Z,1.73
2023-05-13T15:24:29.271Z,1.77
2023-05-13T15:26:57.287Z,1.88
2023-05-13T15:29:25.342Z,1.70
2023-05-13T15:31:54.413Z,1.60
2023-05-13T15:34:22.556Z,1.80
2023-05-13T15:36:52.024Z,2.08
2023-05-13T15:39:20.278Z,1.70
2023-05-13T15:41:49.127Z,1.77
2023-05-13T15:44:17.155Z,1.83
2023-05-13T15:46:46.737Z,1.95
2023-05-13T15:49:16.531Z,1.80
2023-05-13T15:51:44.668Z,4.15
2023-05-13T15:54:14.124Z,3.17
2023-05-13T15:56:42.149Z,1.98
2023-05-13T15:59:10.360Z,1.80
2023-05-13T16:01:40.364Z,2.22
2023-05-13T16:04:08.856Z,2.72
2023-05-13T16:06:36.995Z,2.00
2023-05-13T16:09:05.181Z,2.75
2023-05-13T16:11:34.644Z,1.77
2023-05-13T16:14:02.701Z,2.50
2023-05-13T16:16:30.807Z,1.95
2023-05-13T16:18:58.988Z,2.05
2023-05-13T16:21:27.068Z,1.75
2023-05-13T16:23:55.185Z,2.20
2023-05-13T16:26:23.356Z,1.85
2023-05-13T16:28:52.976Z,1.65
2023-05-13T16:31:21.127Z,1.77
2023-05-13T16:33:49.235Z,2.00
2023-05-13T16:36:17.443Z,1.77
2023-05-13T16:38:46.629Z,2.30
2023-05-13T16:41:14.837Z,1.75
2023-05-13T16:43:43.031Z,1.70
2023-05-13T16:46:12.715Z,2.15
2023-05-13T16:48:42.556Z,1.73
2023-05-13T16:51:10.705Z,1.80
2023-05-13T16:53:38.790Z,1.95
2023-05-13T16:56:07.156Z,2.00
2023-05-13T16:58:35.297Z,1.92
2023-05-13T17:01:03.440Z,2.38
2023-05-13T17:03:32.988Z,2.58
2023-05-13T17:06:01.096Z,2.47
2023-05-13T17:08:29.196Z,2.80
2023-05-13T17:10:57.385Z,2.28
2023-05-13T17:13:25.691Z,2.33
2023-05-13T17:15:53.786Z,2.75
2023-05-13T17:18:21.938Z,2.40
2023-05-13T17:20:51.482Z,2.20
2023-05-13T17:23:19.606Z,1.90
2023-05-13T17:25:47.639Z,2.28
2023-05-13T17:28:15.657Z,2.45
2023-05-13T17:30:43.712Z,2.40
2023-05-13T17:33:11.799Z,2.55
2023-05-13T17:35:40.274Z,2.85
2023-05-13T17:38:09.646Z,2.40
2023-05-13T17:40:37.663Z,3.08
2023-05-13T17:43:05.707Z,2.40
2023-05-13T17:45:35.807Z,2.30
2023-05-13T17:48:04.131Z,2.45
2023-05-13T17:50:32.332Z,2.42
2023-05-13T17:53:01.906Z,2.33
2023-05-13T17:55:31.739Z,2.35
2023-05-13T17:57:59.917Z,2.15
2023-05-13T18:00:28.656Z,2.45
2023-05-13T18:02:56.691Z,2.28
2023-05-13T18:05:24.805Z,2.45
2023-05-13T18:07:52.832Z,2.80
2023-05-13T18:10:21.175Z,2.63
2023-05-13T18:12:51.776Z,2.50
2023-05-13T18:15:20.086Z,2.50
2023-05-13T18:17:48.243Z,2.67
2023-05-13T18:20:16.412Z,2.70
2023-05-13T18:22:44.437Z,3.22
2023-05-13T18:25:12.523Z,3.50
2023-05-13T18:27:40.619Z,3.05
2023-05-13T18:30:11.301Z,2.97
2023-05-13T18:32:39.752Z,2.60
2023-05-13T18:35:08.539Z,2.40
2023-05-13T18:37:38.238Z,2.97
2023-05-13T18:40:07.412Z,3.13
2023-05-13T18:42:35.554Z,3.27
2023-05-13T18:45:03.614Z,4.13
2023-05-13T18:47:33.115Z,3.00
2023-05-13T18:50:01.196Z,3.07
2023-05-13T18:52:29.297Z,3.30
2023-05-13T18:54:57.435Z,3.20
2023-05-13T18:57:25.528Z,2.90
2023-05-13T18:59:53.838Z,3.10
2023-05-13T19:02:22.177Z,3.40
2023-05-13T19:04:51.738Z,3.20
2023-05-13T19:07:19.733Z,3.20
2023-05-13T19:09:48.545Z,3.63
2023-05-13T19:12:16.565Z,3.50
2023-05-13T19:14:44.604Z,3.43
2023-05-13T19:17:12.869Z,3.80
2023-05-13T19:19:41.083Z,4.00
2023-05-13T19:22:10.795Z,3.63
2023-05-13T19:24:38.828Z,3.90
2023-05-13T19:27:08.051Z,3.63
2023-05-13T19:29:36.429Z,3.97
2023-05-13T19:32:04.548Z,3.83
2023-05-13T19:34:32.630Z,3.60
2023-05-13T19:37:00.784Z,4.37
2023-05-13T19:39:30.238Z,4.50
2023-05-13T19:41:58.297Z,4.77
2023-05-13T19:44:28.038Z,4.70
2023-05-13T19:46:56.610Z,4.70
2023-05-13T19:49:26.186Z,5.13
2023-05-13T19:51:54.355Z,5.70
2023-05-13T19:54:22.392Z,7.37
2023-05-13T19:56:51.822Z,8.10
2023-05-13T19:59:19.877Z,9.07
2023-05-13T20:01:48.209Z,9.63
2023-05-13T20:04:16.496Z,7.33
2023-05-13T20:06:44.599Z,5.93
2023-05-13T20:09:12.642Z,5.83
2023-05-13T20:11:40.884Z,5.23
2023-05-13T20:14:12.302Z,7.17
2023-05-13T20:16:40.697Z,6.77
2023-05-13T20:19:09.901Z,6.40
2023-05-13T20:21:38.081Z,6.40
2023-05-13T20:24:06.330Z,5.40
2023-05-13T20:26:35.800Z,5.70
2023-05-13T20:29:04.129Z,6.43
2023-05-13T20:31:33.672Z,5.47
2023-05-13T20:34:03.289Z,5.83
2023-05-13T20:36:32.648Z,5.50
2023-05-13T20:39:00.676Z,5.47
2023-05-13T20:41:28.870Z,5.40
2023-05-13T20:43:56.961Z,5.67
2023-05-13T20:46:25.197Z,5.97
2023-05-13T20:48:55.506Z,5.70
2023-05-13T20:51:23.612Z,5.90
2023-05-13T20:53:52.306Z,5.87
2023-05-13T20:56:21.558Z,5.93
2023-05-13T20:58:49.589Z,6.80
2023-05-13T21:01:17.699Z,6.43
2023-05-13T21:03:46.830Z,6.50
2023-05-13T21:06:17.705Z,6.40
2023-05-13T21:08:45.983Z,6.30
2023-05-13T21:11:14.016Z,6.27
2023-05-13T21:13:42.055Z,6.60
2023-05-13T21:16:10.241Z,7.20
2023-05-13T21:18:38.349Z,7.40
2023-05-13T21:21:08.702Z,7.77
2023-05-13T21:23:39.807Z,7.73
2023-05-13T21:26:07.941Z,8.00
2023-05-13T21:28:36.201Z,8.10
2023-05-13T21:31:04.438Z,8.10
2023-05-13T21:33:32.837Z,9.37
2023-05-13T21:36:00.986Z,8.07
2023-05-13T21:38:29.171Z,8.23
2023-05-13T21:40:59.443Z,8.40
2023-05-13T21:43:27.538Z,8.17
2023-05-13T21:45:55.638Z,8.53
2023-05-13T21:48:23.869Z,8.03
2023-05-13T21:50:52.779Z,8.20
2023-05-13T21:53:22.030Z,8.50
2023-05-13T21:55:50.086Z,8.10
2023-05-13T21:58:21.814Z,8.37
2023-05-13T22:00:51.885Z,8.43
2023-05-13T22:03:20.086Z,8.30
2023-05-13T22:05:48.267Z,8.43
2023-05-13T22:08:16.413Z,8.43
2023-05-13T22:10:44.570Z,9.10
2023-05-13T22:13:12.740Z,8.50
2023-05-13T22:15:42.395Z,8.60
2023-05-13T22:18:10.715Z,8.37
2023-05-13T22:20:38.909Z,8.60
2023-05-13T22:23:07.606Z,10.03
2023-05-13T22:25:35.691Z,10.13
2023-05-13T22:28:03.789Z,9.57
2023-05-13T22:30:31.867Z,9.90
2023-05-13T22:33:01.409Z,9.90
2023-05-13T22:35:29.952Z,9.03
2023-05-13T22:37:58.095Z,9.13
2023-05-13T22:40:26.382Z,8.80
2023-05-13T22:42:54.769Z,9.00
2023-05-13T22:45:22.938Z,9.60
2023-05-13T22:47:51.568Z,9.60
2023-05-13T22:50:21.409Z,9.03
2023-05-13T22:52:50.046Z,8.63
2023-05-13T22:55:18.104Z,9.13
2023-05-13T22:57:46.270Z,8.97
2023-05-13T23:00:15.280Z,9.77
2023-05-13T23:02:43.473Z,8.77
2023-05-13T23:05:11.701Z,10.17
2023-05-13T23:07:41.339Z,9.90
2023-05-13T23:10:10.193Z,9.93
2023-05-13T23:12:38.869Z,10.27
2023-05-13T23:15:08.437Z,11.40
2023-05-13T23:17:36.589Z,11.00
2023-05-13T23:20:05.208Z,11.23
2023-05-13T23:22:33.264Z,12.00
2023-05-13T23:25:03.657Z,13.47
2023-05-13T23:27:31.966Z,13.40
2023-05-13T23:30:00.179Z,13.77
2023-05-13T23:32:28.319Z,13.93
2023-05-13T23:34:56.512Z,14.20
2023-05-13T23:37:24.580Z,14.10
2023-05-13T23:39:52.669Z,14.53
2023-05-13T23:42:22.188Z,13.70
2023-05-13T23:44:50.224Z,14.03
2023-05-13T23:47:18.236Z,14.07
2023-05-13T23:49:46.318Z,13.77
2023-05-13T23:52:14.357Z,13.10
2023-05-13T23:54:42.346Z,13.30
2023-05-13T23:57:10.880Z,11.70
2023-05-13T23:59:40.253Z,12.47
